Pardeeville, WI (53954)

6:29 AM CDT on September 02, 2015 (GMT -0500)
APRSWXNET | | Change Station
CLOSE
Current Station
Personal Weather Station
Location: Portage, WI
Elevation: 836 ft
Nearby Weather Stations

Elev 836 ft 43.54 °N, 89.46 °W | Updated 26 minutes ago

Partly Cloudy
Partly Cloudy
70 °F
Feels Like 70 °F
N
0
Wind Variable Wind from SSE
Gusts 1.0 mph

Today
High -- | Low -- °F
--% Chance of Precip.
Yesterday
High -- | Low -- °F
Precip. -- in
6:21 AM 7:31 PM
Waning Gibbous, 81% visible
Pressure 30.02 in
Visibility 5.0 miles
Clouds Scattered Clouds 11000 ft
Dew Point 69 °F
Humidity 97%
Rainfall in
Snow Depth Not available.
UV 0 out of 12
Pollen 10.50 out of 12
Air Quality Not available.
Flu Activity Not available.
METAR KDLL 021115Z AUTO 17003KT 5SM BR SCT110 20/19 A3002 RMK AO2 LTG DSNT N T02020186
Pressure 30.02 in
Visibility 5.0 miles
Clouds Scattered Clouds 11000 ft
Dew Point 69 °F
Humidity 97%
Rainfall in
Snow Depth Not available.
UV 0 out of 12
Pollen 10.50 out of 12
Air Quality Not available.
Flu Activity Not available.
METAR KDLL 021115Z AUTO 17003KT 5SM BR SCT110 20/19 A3002 RMK AO2 LTG DSNT N T02020186

10-Day Weather Forecast

×

Almanac

Astronomy

Sep. 02, 2015 Rise Set
Actual Time
Civil Twilight
Nautical Twilight
Astronomical Twilight
Moon
Length of Visible Light
Length of Day
Tomorrow will be .
, % of the Moon is Illuminated

Today's Extremes

State Highs State Lows

Community

WunderPhotos

Upload Photos

1,851,736 photos uploaded!

WunderBlogs® & News

Nearby

Air Quality

  Air Quality AQ Index Pollutant
Not available.

Snow Depth

Station Depth Elevation

Earthquake Activity

City Distance Mag. Time & Date
Minimum magnitude displayed is 2.5.

Coastal Water Temperatures

Place Temperature

Stations

Nearby Weather Stations

Station Location Temp. Windchill Dew Point Humidity Wind Precip. Elev Updated Type